Time;durP1;ratioP1;P1;durP2;ratioP2;P2;SDS_P1;SDS_P2;PMS_P1;PMS_P2;Temp;Humidity;BMP_temperature;BMP_pressure;BME280_temperature;BME280_humidity;BME280_pressure;Samples;Min_cycle;Max_cycle;Signal;HPM_P1;HPM_P2
2023/09/26 00:00:21;;;;;;;2.60;2.20;;;;;;;17.57;100.00;101354.16;108643;1257;58885;-53
2023/09/26 00:02:50;;;;;;;6.80;2.30;;;;;;;17.52;100.00;101356.61;108769;1256;72734;-55
2023/09/26 00:05:19;;;;;;;4.00;2.80;;;;;;;17.46;100.00;101354.34;108742;1257;66031;-56
2023/09/26 00:07:48;;;;;;;9.30;2.10;;;;;;;17.42;100.00;101356.42;108687;1257;72732;-54
2023/09/26 00:10:16;;;;;;;4.70;2.50;;;;;;;17.38;100.00;101353.30;108737;1257;60521;-52
2023/09/26 00:12:44;;;;;;;6.40;3.30;;;;;;;17.36;100.00;101353.92;108710;1257;59501;-54
2023/09/26 00:15:11;;;;;;;6.00;3.00;;;;;;;17.34;100.00;101352.99;108701;1256;77649;-52
2023/09/26 00:17:39;;;;;;;3.50;3.30;;;;;;;17.28;100.00;101352.38;108773;1256;66734;-52
2023/09/26 00:20:10;;;;;;;5.50;3.00;;;;;;;17.22;100.00;101350.69;105352;1258;72725;-54
2023/09/26 00:22:38;;;;;;;4.10;2.70;;;;;;;17.17;100.00;101349.50;104611;1261;60465;-52
2023/09/26 00:25:06;;;;;;;4.90;2.40;;;;;;;17.14;100.00;101345.48;105438;1259;60453;-52
2023/09/26 00:27:33;;;;;;;5.30;3.00;;;;;;;17.12;100.00;101348.65;106068;1256;72673;-56
2023/09/26 00:30:01;;;;;;;4.10;3.00;;;;;;;17.09;100.00;101346.48;104724;1262;65533;-53
2023/09/26 00:32:30;;;;;;;11.50;3.60;;;;;;;17.01;100.00;101347.19;104668;1258;71492;-55
2023/09/26 00:34:57;;;;;;;3.10;2.70;;;;;;;16.90;100.00;101345.41;106236;1261;60731;-53
2023/09/26 00:37:25;;;;;;;6.00;2.60;;;;;;;16.83;100.00;101347.77;104703;1258;60506;-55
2023/09/26 00:39:53;;;;;;;3.00;2.60;;;;;;;16.78;100.00;101347.98;104956;1253;75835;-52
2023/09/26 00:42:20;;;;;;;3.40;3.20;;;;;;;16.71;100.00;101346.00;104904;1253;66871;-52
2023/09/26 00:44:48;;;;;;;3.10;2.70;;;;;;;16.63;100.00;101348.00;104985;1253;71614;-53
2023/09/26 00:47:16;;;;;;;5.10;2.80;;;;;;;16.58;100.00;101353.46;104723;1260;61740;-53
2023/09/26 00:49:44;;;;;;;6.60;3.30;;;;;;;16.52;100.00;101355.54;104926;1258;60451;-55
2023/09/26 00:52:11;;;;;;;7.00;4.50;;;;;;;16.49;100.00;101359.53;104922;1253;75625;-52
2023/09/26 00:54:38;;;;;;;4.20;3.40;;;;;;;16.44;100.00;101357.73;104874;1253;67038;-52
2023/09/26 00:57:06;;;;;;;6.20;3.90;;;;;;;16.37;100.00;101359.38;104857;1260;72677;-53
2023/09/26 00:59:33;;;;;;;5.20;4.10;;;;;;;16.28;100.00;101361.73;104833;1253;61970;-53
2023/09/26 01:02:01;;;;;;;4.90;4.40;;;;;;;16.23;100.00;101364.20;104784;1254;60613;-54
2023/09/26 01:04:29;;;;;;;5.40;3.30;;;;;;;16.14;100.00;101365.50;105488;1256;72543;-55
2023/09/26 01:06:57;;;;;;;3.40;3.10;;;;;;;16.03;100.00;101368.15;104843;1253;65658;-54
2023/09/26 01:09:24;;;;;;;4.10;3.10;;;;;;;15.94;100.00;101367.13;104846;1259;72744;-54
2023/09/26 01:11:51;;;;;;;3.40;3.00;;;;;;;15.89;100.00;101366.30;104878;1259;60914;-55
2023/09/26 01:14:19;;;;;;;2.80;2.00;;;;;;;15.85;100.00;101365.52;104901;1253;62400;-54
2023/09/26 01:16:54;;;;;;;7.20;3.20;;;;;;;15.86;100.00;101363.68;104792;1253;73829;-53
2023/09/26 01:19:22;;;;;;;6.60;3.20;;;;;;;15.87;100.00;101360.59;105124;1253;65882;-53
2023/09/26 01:21:49;;;;;;;5.00;3.30;;;;;;;15.86;100.00;101360.23;104994;1252;72701;-53
2023/09/26 01:24:17;;;;;;;5.20;4.20;;;;;;;15.88;100.00;101359.09;104738;1253;61812;-53
2023/09/26 01:26:44;;;;;;;6.30;3.30;;;;;;;15.89;100.00;101359.20;105362;1253;59299;-53
2023/09/26 01:29:12;;;;;;;5.40;2.90;;;;;;;15.92;100.00;101355.47;104822;1259;72658;-53
2023/09/26 01:31:39;;;;;;;3.40;2.60;;;;;;;15.94;100.00;101356.46;104975;1258;66780;-54
2023/09/26 01:34:07;;;;;;;4.70;3.30;;;;;;;15.96;100.00;101354.56;105620;1257;73011;-53
2023/09/26 01:36:35;;;;;;;4.60;2.90;;;;;;;15.96;100.00;101354.20;105440;1253;61741;-53
2023/09/26 01:39:03;;;;;;;5.10;3.40;;;;;;;15.96;100.00;101355.12;104849;1257;60505;-54
2023/09/26 01:41:30;;;;;;;2.90;2.60;;;;;;;15.94;100.00;101349.96;104637;1252;73820;-51
2023/09/26 01:43:57;;;;;;;3.60;3.30;;;;;;;15.91;100.00;101349.02;104930;1253;67137;-54
2023/09/26 01:46:26;;;;;;;3.90;3.60;;;;;;;15.89;100.00;101351.24;105363;1255;71712;-52
2023/09/26 01:48:53;;;;;;;6.70;3.40;;;;;;;15.88;100.00;101348.91;104924;1254;60549;-55
2023/09/26 01:51:21;;;;;;;5.60;3.00;;;;;;;15.88;100.00;101353.47;104993;1253;61270;-54
2023/09/26 01:53:48;;;;;;;3.30;2.50;;;;;;;15.87;100.00;101353.48;104820;1253;74327;-54
2023/09/26 01:56:16;;;;;;;7.20;2.90;;;;;;;15.86;100.00;101355.36;105297;1253;67083;-53
2023/09/26 01:58:43;;;;;;;4.30;3.80;;;;;;;15.83;100.00;101361.29;104954;1256;71449;-54
2023/09/26 02:01:11;;;;;;;6.60;2.80;;;;;;;15.81;100.00;101363.39;104817;1254;61663;-56
2023/09/26 02:03:38;;;;;;;5.90;3.60;;;;;;;15.80;100.00;101369.39;105049;1254;60826;-55
2023/09/26 02:06:06;;;;;;;5.70;4.00;;;;;;;15.76;100.00;101365.41;104953;1259;73906;-52
2023/09/26 02:08:33;;;;;;;4.10;3.80;;;;;;;15.70;100.00;101369.68;104727;1255;67733;-55
2023/09/26 02:11:00;;;;;;;4.20;3.70;;;;;;;15.63;100.00;101368.89;104845;1256;72908;-54
2023/09/26 02:13:28;;;;;;;4.80;3.90;;;;;;;15.56;100.00;101371.01;104920;1254;60518;-55
2023/09/26 02:15:56;;;;;;;5.60;4.80;;;;;;;15.50;100.00;101371.41;105427;1253;60668;-55
2023/09/26 02:18:24;;;;;;;10.60;3.60;;;;;;;15.43;100.00;101373.69;105417;1253;73058;-54
2023/09/26 02:20:52;;;;;;;3.10;2.90;;;;;;;15.39;100.00;101372.25;104961;1262;65780;-53
2023/09/26 02:23:20;;;;;;;5.80;3.20;;;;;;;15.36;100.00;101370.58;104935;1257;72714;-53
2023/09/26 02:25:51;;;;;;;5.70;2.60;;;;;;;15.32;100.00;101373.23;104782;1253;61893;-55
2023/09/26 02:28:20;;;;;;;3.80;3.20;;;;;;;15.32;100.00;101377.60;104777;1252;60559;-51
2023/09/26 02:30:47;;;;;;;2.60;2.40;;;;;;;15.33;100.00;101383.88;105784;1253;72586;-55
2023/09/26 02:33:15;;;;;;;5.60;2.40;;;;;;;15.36;100.00;101388.47;107148;1253;65786;-54
2023/09/26 02:35:42;;;;;;;3.50;3.00;;;;;;;15.38;100.00;101388.59;104748;1259;71773;-55
2023/09/26 02:38:10;;;;;;;2.90;2.50;;;;;;;15.40;100.00;101391.17;104883;1259;61755;-53
2023/09/26 02:40:37;;;;;;;3.80;2.40;;;;;;;15.42;100.00;101392.35;104806;1258;60397;-53
2023/09/26 02:43:05;;;;;;;3.50;3.20;;;;;;;15.44;100.00;101392.48;104744;1254;74754;-53
2023/09/26 02:45:34;;;;;;;3.70;2.90;;;;;;;15.47;100.00;101394.88;104850;1253;65528;-55
2023/09/26 02:48:04;;;;;;;5.70;3.00;;;;;;;15.50;100.00;101397.59;108853;1254;71479;-55
2023/09/26 02:50:31;;;;;;;5.20;2.80;;;;;;;15.54;100.00;101395.70;109041;1253;60464;-55
2023/09/26 02:52:59;;;;;;;5.70;5.00;;;;;;;15.56;100.00;101397.05;109058;1253;60083;-55
2023/09/26 02:55:27;;;;;;;9.60;6.00;;;;;;;15.58;100.00;101394.96;109073;1254;72564;-55
2023/09/26 02:57:55;;;;;;;8.00;6.80;;;;;;;15.63;100.00;101392.43;109001;1253;65722;-53
2023/09/26 03:00:22;;;;;;;8.60;6.90;;;;;;;15.68;100.00;101391.47;108951;1253;73202;-55
2023/09/26 03:02:50;;;;;;;7.10;6.50;;;;;;;15.74;100.00;101384.88;109098;1252;60717;-55
2023/09/26 03:05:17;;;;;;;8.60;6.90;;;;;;;15.81;100.00;101388.34;108910;1252;60474;-52
2023/09/26 03:07:48;;;;;;;7.80;6.30;;;;;;;15.86;100.00;101390.48;108944;1253;72648;-55
2023/09/26 03:10:16;;;;;;;9.20;7.20;;;;;;;15.91;100.00;101390.61;109009;1253;67074;-53
2023/09/26 03:12:44;;;;;;;5.70;5.20;;;;;;;15.97;100.00;101393.27;109009;1253;73145;-52
2023/09/26 03:15:12;;;;;;;7.20;6.50;;;;;;;16.00;100.00;101391.84;108948;1253;61974;-53
2023/09/26 03:17:39;;;;;;;11.00;6.70;;;;;;;16.05;100.00;101395.27;109036;1253;60515;-53
2023/09/26 03:20:14;;;;;;;7.70;6.90;;;;;;;16.11;100.00;101399.15;108846;1254;72639;-53
2023/09/26 03:22:41;;;;;;;11.90;9.10;;;;;;;16.16;100.00;101407.42;108933;1253;67041;-53
2023/09/26 03:25:10;;;;;;;15.20;9.10;;;;;;;16.21;100.00;101406.45;107650;1254;72403;-52
2023/09/26 03:27:37;;;;;;;9.50;7.80;;;;;;;16.26;100.00;101410.58;106120;1253;61188;-54
2023/09/26 03:30:06;;;;;;;15.10;11.30;;;;;;;16.31;100.00;101414.38;106220;1255;60426;-53
2023/09/26 03:32:33;;;;;;;12.60;11.00;;;;;;;16.35;100.00;101411.60;104624;1256;72660;-54
2023/09/26 03:35:01;;;;;;;12.30;11.00;;;;;;;16.40;100.00;101414.84;105301;1257;67246;-53
2023/09/26 03:37:28;;;;;;;15.40;9.90;;;;;;;16.44;100.00;101415.57;105040;1257;71391;-53
2023/09/26 03:39:55;;;;;;;14.90;11.40;;;;;;;16.46;100.00;101413.84;104662;1254;60508;-53
2023/09/26 03:42:24;;;;;;;16.60;10.00;;;;;;;16.48;100.00;101412.48;104708;1253;61168;-53
2023/09/26 03:44:52;;;;;;;18.50;13.30;;;;;;;16.50;100.00;101410.90;105004;1253;73933;-53
2023/09/26 03:47:19;;;;;;;13.20;11.50;;;;;;;16.53;100.00;101412.41;104607;1258;67068;-52
2023/09/26 03:49:51;;;;;;;19.40;12.30;;;;;;;16.55;100.00;101415.02;104598;1254;71413;-52
2023/09/26 03:52:19;;;;;;;11.90;10.10;;;;;;;16.56;100.00;101415.33;106140;1252;61851;-54
2023/09/26 03:54:46;;;;;;;11.70;10.50;;;;;;;16.59;100.00;101417.76;105217;1257;60688;-53
2023/09/26 03:57:13;;;;;;;17.10;13.30;;;;;;;16.60;100.00;101416.60;104815;1253;72674;-54
2023/09/26 03:59:41;;;;;;;19.40;11.90;;;;;;;16.62;100.00;101417.45;105034;1257;65644;-54
2023/09/26 04:02:08;;;;;;;12.60;10.30;;;;;;;16.65;100.00;101413.54;104621;1253;72739;-54
2023/09/26 04:04:36;;;;;;;13.60;11.20;;;;;;;16.67;100.00;101415.23;105087;1256;61131;-54
2023/09/26 04:07:04;;;;;;;14.90;11.50;;;;;;;16.69;100.00;101414.77;104787;1253;60391;-53
2023/09/26 04:09:33;;;;;;;19.10;13.30;;;;;;;16.71;100.00;101413.58;105129;1258;74275;-53
2023/09/26 04:12:04;;;;;;;19.80;11.60;;;;;;;16.75;100.00;101417.39;105178;1253;65798;-53
2023/09/26 04:14:31;;;;;;;15.20;13.00;;;;;;;16.79;100.00;101418.85;104990;1252;71511;-53
2023/09/26 04:16:58;;;;;;;18.30;13.60;;;;;;;16.82;100.00;101420.34;104790;1253;61665;-53
2023/09/26 04:19:26;;;;;;;19.50;14.40;;;;;;;16.84;100.00;101421.11;104738;1259;180013;-53
2023/09/26 04:23:39;;;;;;;22.60;14.10;;;;;;;16.86;100.00;101450.22;102022;1293;600641;-54
2023/09/26 04:26:13;;;;;;;26.10;16.50;;;;;;;16.89;100.00;101450.06;104259;1268;60567;-54
2023/09/26 04:28:41;;;;;;;25.90;14.40;;;;;;;16.93;100.00;101450.23;103982;1271;59351;-54
2023/09/26 04:31:16;;;;;;;15.30;13.10;;;;;;;16.98;100.00;101443.13;105804;1270;72621;-54
2023/09/26 04:33:45;;;;;;;20.70;15.80;;;;;;;17.02;100.00;101444.54;104728;1270;66981;-54
2023/09/26 04:36:12;;;;;;;20.60;14.90;;;;;;;17.05;100.00;101444.77;103569;1267;174594;-55
2023/09/26 04:38:40;;;;;;;17.00;14.20;;;;;;;17.07;100.00;101447.25;103971;1271;60667;-53
2023/09/26 04:41:07;;;;;;;17.30;14.40;;;;;;;17.08;100.00;101446.83;103971;1269;59380;-53
2023/09/26 04:43:36;;;;;;;20.80;15.10;;;;;;;17.10;100.00;101447.26;103730;1264;72283;-52
2023/09/26 04:46:10;;;;;;;19.20;15.70;;;;;;;17.12;100.00;101447.86;104866;1271;65599;-53
2023/09/26 04:48:39;;;;;;;26.20;15.30;;;;;;;17.14;100.00;101444.88;105687;1269;72696;-53
2023/09/26 04:51:11;;;;;;;25.20;16.30;;;;;;;17.17;100.00;101446.20;104431;1267;61779;-53
2023/09/26 04:53:39;;;;;;;18.80;16.00;;;;;;;17.18;100.00;101446.83;104273;1269;60073;-55
2023/09/26 04:56:07;;;;;;;21.50;15.60;;;;;;;17.21;100.00;101445.27;104259;1269;71797;-51
2023/09/26 04:58:35;;;;;;;24.50;15.30;;;;;;;17.22;100.00;101447.37;104982;1270;67327;-55
2023/09/26 05:01:11;;;;;;;21.30;14.90;;;;;;;17.24;100.00;101452.73;104249;1269;71091;-53
2023/09/26 05:03:39;;;;;;;17.50;14.60;;;;;;;17.25;100.00;101449.23;104310;1266;62710;-53
2023/09/26 05:06:08;;;;;;;18.80;15.00;;;;;;;17.26;100.00;101447.54;104803;1265;60202;-53
2023/09/26 05:08:35;;;;;;;18.00;15.30;;;;;;;17.27;100.00;101449.28;104179;1269;74215;-53
2023/09/26 05:11:03;;;;;;;19.80;15.40;;;;;;;17.30;100.00;101454.23;104033;1270;64684;-53
2023/09/26 05:13:30;;;;;;;21.00;16.10;;;;;;;17.33;100.00;101454.65;103976;1271;74433;-53
2023/09/26 05:15:58;;;;;;;21.70;16.60;;;;;;;17.34;100.00;101451.66;103988;1270;62186;-52
2023/09/26 05:18:25;;;;;;;22.30;15.10;;;;;;;17.33;100.00;101456.08;104509;1263;60381;-53
2023/09/26 05:20:53;;;;;;;17.90;14.30;;;;;;;17.32;100.00;101457.75;108560;1258;73592;-54
2023/09/26 05:23:20;;;;;;;19.90;15.70;;;;;;;17.34;100.00;101461.11;104720;1263;67401;-53
2023/09/26 05:25:47;;;;;;;19.90;15.30;;;;;;;17.37;100.00;101463.83;104531;1260;74031;-52
2023/09/26 05:28:15;;;;;;;17.70;14.80;;;;;;;17.42;100.00;101464.56;104493;1261;62128;-54
2023/09/26 05:30:42;;;;;;;20.40;14.20;;;;;;;17.46;100.00;101468.33;104701;1258;60238;-53
2023/09/26 05:33:10;;;;;;;18.00;15.50;;;;;;;17.49;100.00;101464.17;104580;1263;74198;-53
2023/09/26 05:35:37;;;;;;;19.20;14.30;;;;;;;17.52;100.00;101465.85;108500;1260;66671;-54
2023/09/26 05:38:05;;;;;;;20.20;15.10;;;;;;;17.55;100.00;101468.63;104592;1264;73160;-53
2023/09/26 05:40:32;;;;;;;15.70;12.90;;;;;;;17.57;100.00;101465.07;104479;1262;60678;-52
2023/09/26 05:42:59;;;;;;;22.20;13.80;;;;;;;17.62;100.00;101463.56;104421;1260;59679;-54
2023/09/26 05:45:28;;;;;;;23.10;14.90;;;;;;;17.67;100.00;101464.94;104454;1264;72698;-54
2023/09/26 05:47:55;;;;;;;18.80;12.60;;;;;;;17.71;100.00;101461.61;104615;1263;65744;-53
2023/09/26 05:50:22;;;;;;;20.00;12.60;;;;;;;17.75;100.00;101462.16;104529;1264;70927;-53
2023/09/26 05:52:50;;;;;;;18.80;11.70;;;;;;;17.79;100.00;101462.31;104311;1259;61742;-54
2023/09/26 05:55:17;;;;;;;16.20;14.40;;;;;;;17.83;100.00;101462.86;104396;1260;60051;-52
2023/09/26 05:57:45;;;;;;;20.80;15.40;;;;;;;17.87;100.00;101463.02;104536;1258;73113;-54
2023/09/26 06:00:12;;;;;;;20.90;14.40;;;;;;;17.89;100.00;101462.38;104416;1260;65854;-54
2023/09/26 06:02:45;;;;;;;18.60;15.00;;;;;;;17.90;100.00;101469.96;108597;1260;73137;-55
2023/09/26 06:05:12;;;;;;;16.70;12.90;;;;;;;17.92;100.00;101464.93;108643;1261;60472;-55
2023/09/26 06:07:41;;;;;;;16.20;13.10;;;;;;;17.96;100.00;101464.69;108701;1258;59262;-54
2023/09/26 06:10:13;;;;;;;15.40;11.80;;;;;;;18.02;100.00;101465.33;108637;1260;72978;-55
2023/09/26 06:12:40;;;;;;;14.50;12.50;;;;;;;18.06;100.00;101470.34;108595;1260;66848;-55
2023/09/26 06:15:09;;;;;;;13.40;11.90;;;;;;;18.15;100.00;101468.45;105256;1260;72740;-53
2023/09/26 06:17:36;;;;;;;16.40;13.40;;;;;;;18.23;100.00;101469.10;104962;1260;60496;-53
2023/09/26 06:20:08;;;;;;;18.40;14.10;;;;;;;18.29;100.00;101471.52;105419;1260;58644;-53
2023/09/26 06:22:36;;;;;;;16.80;13.70;;;;;;;18.31;100.00;101474.69;104785;1261;71885;-53
2023/09/26 06:25:05;;;;;;;18.50;13.00;;;;;;;18.33;100.00;101476.20;104554;1264;67271;-51
2023/09/26 06:27:35;;;;;;;13.90;11.30;;;;;;;18.38;100.00;101476.48;104726;1264;72858;-53
2023/09/26 06:30:04;;;;;;;19.30;10.50;;;;;;;18.46;100.00;101477.16;104390;1263;60484;-53
2023/09/26 06:32:34;;;;;;;19.40;11.20;;;;;;;18.56;100.00;101477.55;108574;1257;58733;-54
2023/09/26 06:35:01;;;;;;;15.90;10.50;;;;;;;18.65;100.00;101478.52;105623;1263;72157;-54
2023/09/26 06:37:29;;;;;;;15.80;11.50;;;;;;;18.75;100.00;101479.98;104344;1263;67427;-54
2023/09/26 06:40:00;;;;;;;18.70;10.60;;;;;;;18.82;100.00;101487.34;104849;1261;73060;-54
2023/09/26 06:42:27;;;;;;;15.90;10.30;;;;;;;18.90;100.00;101488.22;104514;1260;60518;-54
2023/09/26 06:44:55;;;;;;;15.70;11.50;;;;;;;18.97;100.00;101484.76;104404;1261;60221;-53
2023/09/26 06:47:22;;;;;;;13.60;10.50;;;;;;;19.01;100.00;101490.86;104416;1261;71867;-55
2023/09/26 06:49:50;;;;;;;15.40;10.90;;;;;;;19.04;100.00;101487.96;104317;1263;67853;-54
2023/09/26 06:52:18;;;;;;;11.00;9.80;;;;;;;19.11;100.00;101489.38;104289;1264;71436;-52
2023/09/26 06:54:45;;;;;;;13.00;11.30;;;;;;;19.18;100.00;101492.26;104488;1264;61757;-54
2023/09/26 06:57:17;;;;;;;12.00;10.50;;;;;;;19.23;100.00;101490.68;104431;1261;59784;-53
2023/09/26 06:59:51;;;;;;;11.50;9.90;;;;;;;19.25;100.00;101493.65;104483;1261;71845;-55
2023/09/26 07:02:19;;;;;;;12.40;10.00;;;;;;;19.28;100.00;101494.42;104557;1263;66888;-55
2023/09/26 07:04:52;;;;;;;11.30;9.50;;;;;;;19.34;100.00;101497.53;104849;1260;71665;-56
2023/09/26 07:07:20;;;;;;;11.10;9.30;;;;;;;19.41;100.00;101498.20;105273;1258;61690;-54
2023/09/26 07:09:47;;;;;;;15.00;10.30;;;;;;;19.47;100.00;101497.36;104661;1263;59837;-55
2023/09/26 07:12:17;;;;;;;14.10;8.80;;;;;;;19.52;100.00;101499.10;104635;1258;71863;-55
2023/09/26 07:14:45;;;;;;;11.10;9.70;;;;;;;19.55;100.00;101495.98;104914;1257;65769;-55
2023/09/26 07:17:12;;;;;;;14.60;8.80;;;;;;;19.58;100.00;101495.77;104364;1257;73079;-55
2023/09/26 07:19:40;;;;;;;13.10;9.40;;;;;;;19.64;100.00;101496.93;104566;1261;60478;-54
2023/09/26 07:22:07;;;;;;;17.50;8.70;;;;;;;19.72;100.00;101492.85;104704;1261;60540;-56
2023/09/26 07:24:36;;;;;;;10.20;8.90;;;;;;;19.81;100.00;101493.16;104771;1261;73502;-55
2023/09/26 07:27:17;;;;;;;10.30;9.00;;;;;;;19.91;100.00;101489.30;104568;1257;64682;-56
2023/09/26 07:29:47;;;;;;;14.20;10.00;;;;;;;19.98;100.00;101482.67;104579;1260;71254;-54
2023/09/26 07:32:15;;;;;;;13.70;11.10;;;;;;;20.05;100.00;101484.29;105365;1263;62360;-56
2023/09/26 07:34:42;;;;;;;11.20;9.70;;;;;;;20.09;100.00;101489.30;105633;1260;60608;-54
2023/09/26 07:37:13;;;;;;;13.20;9.70;;;;;;;20.09;100.00;101486.37;104270;1263;71894;-55
2023/09/26 07:39:44;;;;;;;17.30;11.70;;;;;;;20.12;100.00;101489.69;104525;1264;65930;-54
2023/09/26 07:42:12;;;;;;;17.60;12.30;;;;;;;20.18;100.00;101486.42;104644;1264;72741;-54
2023/09/26 07:44:39;;;;;;;19.20;13.60;;;;;;;20.22;100.00;101482.14;104761;1257;60753;-54
2023/09/26 07:47:06;;;;;;;20.60;15.20;;;;;;;20.27;100.00;101484.77;104720;1261;60194;-55
2023/09/26 07:49:34;;;;;;;16.70;13.50;;;;;;;20.30;100.00;101485.45;104624;1257;73266;-55
2023/09/26 07:52:01;;;;;;;15.00;13.30;;;;;;;20.32;100.00;101486.83;104834;1260;67393;-56
2023/09/26 07:54:31;;;;;;;18.10;14.20;;;;;;;20.31;100.00;101487.22;105702;1257;71547;-55
2023/09/26 07:56:58;;;;;;;13.00;11.80;;;;;;;20.29;100.00;101489.00;105462;1257;59688;-55
2023/09/26 07:59:26;;;;;;;15.00;12.70;;;;;;;20.29;100.00;101486.78;104940;1257;60033;-55
2023/09/26 08:01:53;;;;;;;15.40;13.90;;;;;;;20.34;100.00;101487.39;104632;1257;73130;-55
2023/09/26 08:04:20;;;;;;;19.10;16.70;;;;;;;20.36;100.00;101487.84;104626;1259;67454;-56
2023/09/26 08:06:48;;;;;;;20.10;17.50;;;;;;;20.36;100.00;101486.95;108652;1256;71413;-56
2023/09/26 08:09:15;;;;;;;21.70;15.20;;;;;;;20.33;100.00;101481.66;108828;1256;62151;-55
2023/09/26 08:11:43;;;;;;;17.20;15.40;;;;;;;20.33;100.00;101481.23;105873;1256;60130;-54
2023/09/26 08:14:10;;;;;;;17.50;13.50;;;;;;;20.34;100.00;101487.04;104874;1257;73581;-55
2023/09/26 08:16:37;;;;;;;24.00;16.70;;;;;;;20.33;100.00;101485.62;104584;1256;67532;-54
2023/09/26 08:19:05;;;;;;;13.90;12.30;;;;;;;20.31;100.00;101484.30;108753;1256;71763;-56
2023/09/26 08:21:32;;;;;;;18.20;12.20;;;;;;;20.31;100.00;101484.50;108823;1254;58849;-56
2023/09/26 08:24:00;;;;;;;14.30;12.80;;;;;;;20.31;100.00;101484.29;108967;1259;60620;-56
2023/09/26 08:26:28;;;;;;;11.30;10.40;;;;;;;20.33;100.00;101479.10;109010;1254;72508;-59
2023/09/26 08:28:55;;;;;;;15.10;11.50;;;;;;;20.36;100.00;101475.47;108893;1254;68049;-54
2023/09/26 08:31:22;;;;;;;15.40;11.10;;;;;;;20.42;100.00;101474.39;108947;1254;73018;-56
2023/09/26 08:33:50;;;;;;;10.80;9.40;;;;;;;20.49;100.00;101473.54;105080;1254;61899;-55
2023/09/26 08:36:19;;;;;;;12.20;9.30;;;;;;;20.57;100.00;101475.47;108961;1254;58848;-56
2023/09/26 08:38:48;;;;;;;14.40;9.20;;;;;;;20.63;100.00;101473.95;109067;1257;72618;-55
2023/09/26 08:41:17;;;;;;;11.00;9.60;;;;;;;20.70;100.00;101471.16;108941;1254;67650;-57
2023/09/26 08:43:44;;;;;;;10.70;7.70;;;;;;;20.77;100.00;101471.27;109038;1254;73158;-57
2023/09/26 08:46:12;;;;;;;11.30;7.50;;;;;;;20.83;100.00;101473.23;108936;1254;60035;-57
2023/09/26 08:48:39;;;;;;;10.20;7.70;;;;;;;20.92;100.00;101474.45;108811;1254;59866;-53
2023/09/26 08:51:07;;;;;;;8.60;7.70;;;;;;;21.03;100.00;101476.86;108740;1254;75158;-53
2023/09/26 08:53:34;;;;;;;7.50;5.70;;;;;;;21.13;100.00;101481.13;109018;1254;67428;-56
2023/09/26 08:56:02;;;;;;;11.80;7.90;;;;;;;21.22;100.00;101479.48;107974;1256;74322;-54
2023/09/26 08:58:29;;;;;;;9.70;6.20;;;;;;;21.27;100.00;101474.81;104349;1254;60554;-55
2023/09/26 09:00:56;;;;;;;5.30;4.90;;;;;;;21.29;100.00;101478.13;104846;1254;60533;-55
2023/09/26 09:03:24;;;;;;;7.00;4.90;;;;;;;21.33;100.00;101477.48;105748;1254;74215;-56
2023/09/26 09:05:52;;;;;;;12.70;5.70;;;;;;;21.38;100.00;101476.95;104996;1256;65743;-56
2023/09/26 09:08:20;;;;;;;12.10;5.70;;;;;;;21.43;100.00;101478.23;104765;1260;70723;-57
2023/09/26 09:10:51;;;;;;;7.20;5.60;;;;;;;21.48;100.00;101481.23;105246;1259;60441;-57
2023/09/26 09:13:26;;;;;;;9.00;5.60;;;;;;;21.52;100.00;101482.08;104976;1260;60549;-56
2023/09/26 09:16:13;;;;;;;8.80;5.70;;;;;;;21.55;100.00;101482.78;105364;1254;74208;-55
2023/09/26 09:18:47;;;;;;;9.60;4.90;;;;;;;21.57;100.00;101486.68;105384;1254;66859;-57
2023/09/26 09:21:31;;;;;;;7.90;5.50;;;;;;;21.60;100.00;101485.70;106720;1259;72744;-55
2023/09/26 09:24:00;;;;;;;;;;;;;;;21.67;100.00;101486.73;105186;1259;60795;-56
2023/09/26 09:26:32;;;;;;;14.00;4.80;;;;;;;21.73;100.00;101488.13;108986;1254;63141;-56
2023/09/26 09:29:16;;;;;;;14.00;5.50;;;;;;;21.79;100.00;101484.39;107206;1254;75990;-55
2023/09/26 09:31:44;;;;;;;10.50;7.00;;;;;;;21.86;100.00;101489.94;105059;1254;65023;-56
2023/09/26 09:34:14;;;;;;;9.40;5.90;;;;;;;21.88;100.00;101486.34;105032;1258;74666;-55
2023/09/26 09:36:44;;;;;;;10.30;5.40;;;;;;;21.91;100.00;101488.95;104887;1260;59544;-57
2023/09/26 09:39:12;;;;;;;6.70;5.40;;;;;;;21.95;100.00;101489.39;105190;1255;60545;-55
2023/09/26 09:41:40;;;;;;;8.70;5.70;;;;;;;21.98;100.00;101488.26;104872;1260;73960;-54
2023/09/26 09:44:09;;;;;;;10.80;6.40;;;;;;;22.01;100.00;101489.55;105594;1254;67255;-54
2023/09/26 09:46:40;;;;;;;11.00;6.40;;;;;;;22.05;100.00;101488.18;105213;1259;73103;-56
2023/09/26 09:49:11;;;;;;;6.10;5.60;;;;;;;22.10;100.00;101485.08;104773;1254;60625;-54
2023/09/26 09:51:42;;;;;;;11.30;6.40;;;;;;;22.15;100.00;101485.96;107795;1254;60041;-54
2023/09/26 09:54:12;;;;;;;7.30;4.80;;;;;;;22.22;100.00;101491.73;105034;1254;72677;-54
2023/09/26 09:56:39;;;;;;;6.80;4.40;;;;;;;22.27;100.00;101489.17;105423;1260;69536;-55
2023/09/26 09:59:09;;;;;;;11.30;6.00;;;;;;;22.32;100.00;101490.66;104522;1254;71393;-54
2023/09/26 10:01:36;;;;;;;4.60;4.30;;;;;;;22.37;100.00;101488.14;108837;1256;60117;-55
2023/09/26 10:04:04;;;;;;;11.80;5.60;;;;;;;22.43;100.00;101492.25;108650;1254;58818;-56
2023/09/26 10:06:31;;;;;;;8.90;5.50;;;;;;;22.47;100.00;101492.33;104755;1254;74395;-55
2023/09/26 10:08:59;;;;;;;7.00;4.20;;;;;;;22.50;100.00;101494.36;106211;1260;65716;-54
2023/09/26 10:11:27;;;;;;;8.30;4.80;;;;;;;22.52;100.00;101499.48;104581;1261;72705;-55
2023/09/26 10:13:57;;;;;;;5.80;4.50;;;;;;;22.55;100.00;101499.08;104582;1255;60550;-55
2023/09/26 10:16:25;;;;;;;7.90;4.20;;;;;;;22.57;100.00;101499.65;105217;1256;60450;-55
2023/09/26 10:18:53;;;;;;;8.80;5.00;;;;;;;22.59;100.00;101501.15;104727;1259;74784;-56
2023/09/26 10:21:26;;;;;;;4.90;4.50;;;;;;;22.61;100.00;101500.84;106230;1254;67078;-54
2023/09/26 10:24:09;;;;;;;5.10;4.40;;;;;;;22.65;100.00;101503.83;104680;1259;72265;-55
2023/09/26 10:26:38;;;;;;;9.10;3.40;;;;;;;22.67;100.00;101505.41;105539;1254;60632;-55
2023/09/26 10:29:06;;;;;;;7.70;3.00;;;;;;;22.68;100.00;101502.35;108117;1256;58457;-56
2023/09/26 10:31:33;;;;;;;7.50;4.30;;;;;;;22.71;100.00;101498.67;104942;1260;73935;-56
2023/09/26 10:34:01;;;;;;;7.40;4.50;;;;;;;22.75;100.00;101501.91;104732;1259;65972;-55
2023/09/26 10:36:29;;;;;;;5.20;4.70;;;;;;;22.80;100.00;101502.13;104794;1253;73090;-56
2023/09/26 10:39:00;;;;;;;7.00;4.50;;;;;;;22.81;100.00;101499.27;104883;1259;60419;-56
2023/09/26 10:41:27;;;;;;;5.00;4.30;;;;;;;22.84;100.00;101499.79;104935;1256;60335;-55
2023/09/26 10:43:54;;;;;;;7.00;3.60;;;;;;;22.88;100.00;101505.91;104839;1254;72630;-55
2023/09/26 10:46:27;;;;;;;9.40;4.30;;;;;;;22.89;100.00;101507.24;104855;1254;65688;-55
2023/09/26 10:48:58;;;;;;;4.90;4.20;;;;;;;22.91;100.00;101503.27;105076;1257;72717;-57
2023/09/26 10:51:26;;;;;;;4.80;3.90;;;;;;;22.96;100.00;101505.50;105719;1254;60450;-56
2023/09/26 10:53:53;;;;;;;13.30;3.50;;;;;;;23.00;100.00;101507.42;104859;1255;60489;-57
2023/09/26 10:56:21;;;;;;;4.50;3.60;;;;;;;23.04;100.00;101505.09;105077;1254;72672;-57
2023/09/26 10:58:50;;;;;;;10.70;4.50;;;;;;;23.09;100.00;101500.31;105072;1259;67315;-57
2023/09/26 11:01:18;;;;;;;4.40;4.00;;;;;;;23.13;100.00;101501.19;104749;1260;72726;-56
2023/09/26 11:03:45;;;;;;;7.90;3.30;;;;;;;23.14;100.00;101504.73;108859;1253;58776;-53
2023/09/26 11:06:13;;;;;;;8.10;3.50;;;;;;;23.15;100.00;101502.13;108877;1252;58944;-55
2023/09/26 11:08:41;;;;;;;5.20;3.80;;;;;;;23.15;100.00;101500.66;109015;1256;72710;-55